Time;durP1;ratioP1;P1;durP2;ratioP2;P2;SDS_P1;SDS_P2;PMS_P1;PMS_P2;Temp;Humidity;BMP_temperature;BMP_pressure;BME280_temperature;BME280_humidity;BME280_pressure;Samples;Min_cycle;Max_cycle;Signal;HPM_P1;HPM_P2
2021/11/27 00:01:46;;;;;;;16.58;12.57;;;;;;;21.60;29.54;95555.97;5011512;28;20109;-41
2021/11/27 00:04:14;;;;;;;16.88;12.85;;;;;;;21.33;29.83;95535.03;4996722;28;20077;-41
2021/11/27 00:06:42;;;;;;;17.40;13.70;;;;;;;21.26;29.58;95564.41;5011938;28;20065;-41
2021/11/27 00:09:11;;;;;;;18.67;13.38;;;;;;;21.25;30.08;95577.09;4996102;28;20113;-41
2021/11/27 00:11:40;;;;;;;18.00;13.60;;;;;;;21.10;30.29;95570.81;4995022;28;20030;-41
2021/11/27 00:14:09;;;;;;;18.45;13.90;;;;;;;21.07;30.37;95574.19;4996332;28;20088;-41
2021/11/27 00:16:38;;;;;;;17.08;13.10;;;;;;;21.00;30.11;95573.91;4996137;28;20038;-41
2021/11/27 00:19:11;;;;;;;19.23;13.63;;;;;;;20.92;30.43;95578.47;5011373;28;20136;-40
2021/11/27 00:21:41;;;;;;;19.33;14.38;;;;;;;20.86;30.64;95574.00;4996316;28;20062;-41
2021/11/27 00:24:11;;;;;;;17.40;12.88;;;;;;;20.73;30.45;95565.63;5011343;28;20038;-41
2021/11/27 00:26:39;;;;;;;18.08;14.55;;;;;;;20.60;30.75;95555.84;4993974;28;20033;-42
2021/11/27 00:29:08;;;;;;;19.40;15.00;;;;;;;20.53;30.85;95551.97;4995960;28;20470;-40
2021/11/27 00:31:39;;;;;;;18.15;13.80;;;;;;;20.47;30.99;95577.16;5010889;28;20030;-41
2021/11/27 00:34:08;;;;;;;18.85;15.20;;;;;;;20.49;31.28;95577.22;4994973;28;20100;-40
2021/11/27 00:36:36;;;;;;;21.90;15.88;;;;;;;20.35;31.33;95572.38;4995707;28;20026;-41
2021/11/27 00:39:05;;;;;;;21.98;16.08;;;;;;;20.35;31.27;95571.63;4995529;28;20037;-41
2021/11/27 00:41:35;;;;;;;26.10;17.92;;;;;;;20.31;31.35;95572.19;4994333;28;20038;-40
2021/11/27 00:44:01;;;;;;;23.23;17.23;;;;;;;20.24;31.52;95578.19;4994033;28;20027;-41
2021/11/27 00:46:30;;;;;;;23.85;16.40;;;;;;;20.09;31.68;95583.13;4994492;28;20041;-40
2021/11/27 00:48:58;;;;;;;21.35;15.45;;;;;;;20.14;31.61;95581.97;4995495;28;20117;-40
2021/11/27 00:51:28;;;;;;;19.13;14.65;;;;;;;20.20;31.61;95590.00;4995310;28;20054;-41
2021/11/27 00:53:57;;;;;;;19.38;14.32;;;;;;;20.06;31.53;95580.84;4995368;28;20029;-41
2021/11/27 00:56:26;;;;;;;18.52;13.23;;;;;;;19.91;32.12;95585.78;5010730;28;20050;-40
2021/11/27 00:58:54;;;;;;;19.67;12.45;;;;;;;19.95;31.54;95574.72;4995642;28;20031;-41
2021/11/27 01:01:27;;;;;;;17.80;12.77;;;;;;;19.85;31.79;95569.28;4995434;28;20030;-40
2021/11/27 01:03:56;;;;;;;17.52;12.45;;;;;;;19.91;32.07;95562.50;4993847;28;20113;-41
2021/11/27 01:06:26;;;;;;;18.15;12.98;;;;;;;19.73;32.06;95574.31;4994933;28;20088;-41
2021/11/27 01:08:58;;;;;;;16.02;12.45;;;;;;;19.61;32.11;95571.63;4994166;28;20118;-40
2021/11/27 01:11:38;;;;;;;15.25;11.23;;;;;;;19.53;32.42;95576.84;5010594;28;20027;-40
2021/11/27 01:14:11;;;;;;;16.95;11.40;;;;;;;19.65;32.07;95591.56;4995218;28;20397;-40
2021/11/27 01:16:39;;;;;;;16.90;11.77;;;;;;;19.79;32.20;95591.53;5009898;28;20084;-41
2021/11/27 01:19:09;;;;;;;15.15;11.57;;;;;;;19.80;31.99;95589.47;4993683;28;20038;-42
2021/11/27 01:21:43;;;;;;;16.95;11.45;;;;;;;19.72;32.24;95592.63;5010175;28;20120;-40
2021/11/27 01:24:14;;;;;;;16.00;11.50;;;;;;;19.59;31.95;95588.47;4993822;28;20117;-41
2021/11/27 01:26:40;;;;;;;14.13;10.48;;;;;;;19.71;32.31;95589.03;4995125;28;20440;-41
2021/11/27 01:29:09;;;;;;;14.10;10.50;;;;;;;19.55;32.44;95569.22;4993381;28;20030;-43
2021/11/27 01:31:38;;;;;;;13.63;10.05;;;;;;;19.57;32.47;95574.22;4995250;28;20030;-40
2021/11/27 01:34:07;;;;;;;13.95;10.23;;;;;;;19.66;31.90;95569.75;4993522;28;20036;-41
2021/11/27 01:36:36;;;;;;;13.52;10.02;;;;;;;19.66;32.55;95567.63;4993946;28;20084;-41
2021/11/27 01:39:07;;;;;;;13.70;9.93;;;;;;;19.76;32.34;95564.59;4994202;28;20022;-41
2021/11/27 01:41:36;;;;;;;13.30;10.07;;;;;;;19.68;31.97;95555.72;4993487;28;20026;-41
2021/11/27 01:44:03;;;;;;;13.80;9.65;;;;;;;19.79;32.11;95568.25;4993389;28;20149;-41
2021/11/27 01:46:33;;;;;;;13.32;9.80;;;;;;;19.78;32.40;95569.59;4995142;28;20094;-40
2021/11/27 01:49:02;;;;;;;11.90;8.68;;;;;;;19.71;32.54;95580.59;4994955;28;20032;-41
2021/11/27 01:51:31;;;;;;;14.05;10.05;;;;;;;19.74;32.25;95570.13;4993185;28;20377;-41
2021/11/27 01:54:05;;;;;;;12.88;9.10;;;;;;;19.81;32.14;95568.31;4994332;28;20521;-41
2021/11/27 01:56:44;;;;;;;13.52;9.20;;;;;;;19.79;32.40;95562.59;4990598;28;20077;-41
2021/11/27 01:59:13;;;;;;;13.82;10.13;;;;;;;19.85;31.97;95579.88;4993681;28;20026;-41
2021/11/27 02:01:41;;;;;;;11.73;9.02;;;;;;;19.77;32.23;95583.00;4993302;28;20026;-42
2021/11/27 02:04:11;;;;;;;12.82;9.07;;;;;;;19.72;32.50;95581.34;4993145;28;20030;-41
2021/11/27 02:06:42;;;;;;;12.30;9.25;;;;;;;19.83;32.22;95600.22;4993172;28;20049;-40
2021/11/27 02:09:20;;;;;;;13.90;10.38;;;;;;;19.87;32.31;95599.72;5009520;28;20038;-41
2021/11/27 02:11:47;;;;;;;11.43;9.18;;;;;;;19.91;31.96;95605.56;4994152;28;20054;-41
2021/11/27 02:14:16;;;;;;;13.52;9.45;;;;;;;20.01;32.07;95613.81;5009410;28;20041;-40
2021/11/27 02:16:47;;;;;;;11.43;9.55;;;;;;;19.92;32.18;95595.72;5009335;28;20466;-40
2021/11/27 02:19:16;;;;;;;13.23;10.23;;;;;;;19.84;32.15;95592.50;5009090;28;20022;-40
2021/11/27 02:21:45;;;;;;;14.75;10.25;;;;;;;19.72;32.19;95607.44;4994242;28;20038;-40
2021/11/27 02:24:16;;;;;;;11.77;9.30;;;;;;;19.64;32.51;95607.06;4993417;28;20034;-40
2021/11/27 02:26:48;;;;;;;9.77;8.10;;;;;;;19.58;32.14;95614.44;4993252;28;20117;-41
2021/11/27 02:29:22;;;;;;;10.85;8.23;;;;;;;19.58;32.77;95601.09;5009256;28;20042;-41
2021/11/27 02:31:48;;;;;;;10.45;8.27;;;;;;;19.48;32.21;95592.13;4993821;28;20466;-40
2021/11/27 02:34:17;;;;;;;9.60;6.85;;;;;;;19.39;32.59;95605.06;4994555;28;20158;-41
2021/11/27 02:36:49;;;;;;;9.73;7.25;;;;;;;19.28;32.75;95606.66;4994051;28;20470;-41
2021/11/27 02:39:19;;;;;;;10.45;8.20;;;;;;;19.26;32.78;95609.34;4993908;28;20088;-43
2021/11/27 02:41:52;;;;;;;7.53;5.95;;;;;;;19.20;32.88;95623.88;5008959;28;20103;-41
2021/11/27 02:44:18;;;;;;;9.65;7.18;;;;;;;19.20;32.71;95623.13;5008812;28;20067;-40
2021/11/27 02:46:47;;;;;;;11.20;7.53;;;;;;;19.10;33.18;95603.59;4994271;28;20057;-40
2021/11/27 02:49:15;;;;;;;9.48;7.22;;;;;;;19.08;33.07;95614.03;4994884;28;20034;-40
2021/11/27 02:51:43;;;;;;;9.43;7.15;;;;;;;19.08;33.14;95620.41;4997617;28;20550;-41
2021/11/27 02:54:12;;;;;;;11.95;8.50;;;;;;;18.98;33.36;95609.31;4997645;28;20030;-40
2021/11/27 02:56:41;;;;;;;10.88;8.00;;;;;;;18.96;33.52;95612.03;4997672;28;20030;-40
2021/11/27 02:59:09;;;;;;;9.73;7.28;;;;;;;19.03;33.04;95616.63;4997537;28;20085;-40
2021/11/27 03:01:39;;;;;;;10.13;7.68;;;;;;;18.97;33.10;95626.84;4997771;28;20042;-40
2021/11/27 03:04:09;;;;;;;10.57;7.50;;;;;;;19.01;33.37;95635.50;5013069;28;20038;-40
2021/11/27 03:06:39;;;;;;;11.60;7.93;;;;;;;19.00;33.59;95636.91;4996371;28;20416;-41
2021/11/27 03:09:10;;;;;;;10.23;7.32;;;;;;;18.97;33.21;95629.66;4996320;28;20385;-40
2021/11/27 03:11:38;;;;;;;12.48;7.95;;;;;;;19.00;33.33;95646.06;4996058;28;20109;-40
2021/11/27 03:14:07;;;;;;;10.68;7.80;;;;;;;18.98;33.39;95640.31;4997942;28;20042;-40
2021/11/27 03:16:38;;;;;;;10.15;7.88;;;;;;;19.00;33.32;95645.34;4997421;28;20085;-40
2021/11/27 03:19:06;;;;;;;10.88;7.47;;;;;;;18.94;33.41;95640.09;5012463;28;20139;-41
2021/11/27 03:21:36;;;;;;;9.63;7.25;;;;;;;18.89;34.03;95649.66;4996965;28;20046;-40
2021/11/27 03:24:05;;;;;;;12.85;8.80;;;;;;;18.87;33.78;95641.13;4995832;28;20084;-41
2021/11/27 03:26:34;;;;;;;12.80;9.23;;;;;;;18.96;33.77;95645.09;5012463;28;20034;-41
2021/11/27 03:29:02;;;;;;;10.60;8.35;;;;;;;18.95;33.47;95643.66;4997197;28;20481;-40
2021/11/27 03:31:32;;;;;;;10.43;7.75;;;;;;;18.92;33.49;95631.56;4996974;28;20037;-40
2021/11/27 03:34:00;;;;;;;9.95;7.55;;;;;;;18.88;33.80;95634.09;4996045;28;20038;-41
2021/11/27 03:36:29;;;;;;;10.70;8.48;;;;;;;18.81;33.71;95640.78;4996891;28;20034;-40
2021/11/27 03:38:57;;;;;;;11.90;8.30;;;;;;;18.86;33.58;95656.56;5011933;28;20085;-40
2021/11/27 03:41:26;;;;;;;12.50;9.02;;;;;;;18.94;33.76;95661.94;5012033;28;20126;-40
2021/11/27 03:43:51;;;;;;;13.18;9.05;;;;;;;18.89;33.90;95664.53;4996853;28;20030;-40
2021/11/27 03:46:20;;;;;;;13.10;9.10;;;;;;;18.98;33.74;95679.78;4996791;28;20042;-40
2021/11/27 03:48:52;;;;;;;12.18;8.98;;;;;;;18.98;33.83;95676.22;4996930;28;20041;-41
2021/11/27 03:51:22;;;;;;;11.00;8.30;;;;;;;19.01;33.58;95686.25;4995564;28;20034;-41
2021/11/27 03:53:50;;;;;;;12.27;8.35;;;;;;;19.00;33.93;95691.16;4995269;28;20528;-41
2021/11/27 03:56:25;;;;;;;13.50;8.90;;;;;;;18.95;33.65;95700.75;4996581;28;20153;-40
2021/11/27 03:58:56;;;;;;;10.90;8.48;;;;;;;18.96;33.60;95707.88;5011487;28;20079;-40
2021/11/27 04:01:23;;;;;;;11.38;8.70;;;;;;;18.87;33.78;95708.75;5010660;28;20124;-41
2021/11/27 04:03:54;;;;;;;11.07;7.97;;;;;;;18.92;33.71;95715.34;5011728;28;20061;-41
2021/11/27 04:06:23;;;;;;;10.90;8.38;;;;;;;18.95;33.71;95737.41;4996260;28;20139;-40
2021/11/27 04:08:54;;;;;;;11.35;8.68;;;;;;;18.94;33.62;95721.13;4996371;28;20027;-40
2021/11/27 04:11:22;;;;;;;10.55;8.15;;;;;;;18.85;33.67;95715.00;4996489;28;20033;-40
2021/11/27 04:13:51;;;;;;;11.52;8.68;;;;;;;18.84;33.80;95721.25;4994965;28;20058;-41
2021/11/27 04:16:19;;;;;;;10.75;8.57;;;;;;;18.86;33.81;95733.38;4996184;28;20082;-41
2021/11/27 04:18:47;;;;;;;10.85;8.30;;;;;;;18.85;33.83;95734.72;4996141;28;20072;-40
2021/11/27 04:21:18;;;;;;;11.40;8.82;;;;;;;18.82;33.76;95741.59;4996006;28;20038;-40
2021/11/27 04:23:48;;;;;;;11.15;9.07;;;;;;;18.83;34.22;95751.53;5011221;28;20027;-41
2021/11/27 04:26:17;;;;;;;11.40;8.15;;;;;;;18.83;34.23;95747.97;4994747;28;20034;-41
2021/11/27 04:28:47;;;;;;;9.43;7.60;;;;;;;18.92;33.72;95758.38;5011087;28;20155;-40
2021/11/27 04:31:18;;;;;;;10.95;8.13;;;;;;;18.90;33.77;95766.72;4994789;28;20459;-40
2021/11/27 04:33:49;;;;;;;9.27;7.47;;;;;;;18.82;33.84;95754.97;5010686;28;20030;-41
2021/11/27 04:36:19;;;;;;;11.10;7.47;;;;;;;18.84;33.28;95761.44;4994624;28;20018;-40
2021/11/27 04:38:48;;;;;;;11.88;8.55;;;;;;;18.85;33.71;95777.00;4995447;28;20057;-41
2021/11/27 04:41:16;;;;;;;11.25;8.65;;;;;;;18.78;33.67;95777.25;4994455;28;20039;-41
2021/11/27 04:43:44;;;;;;;10.85;7.55;;;;;;;18.85;33.82;95793.19;4995703;28;20389;-41
2021/11/27 04:46:13;;;;;;;11.05;8.13;;;;;;;18.81;33.64;95796.50;4995794;28;20057;-41
2021/11/27 04:48:41;;;;;;;10.43;7.47;;;;;;;18.86;33.82;95815.09;4995541;28;20068;-41
2021/11/27 04:51:10;;;;;;;12.15;8.02;;;;;;;18.86;33.67;95826.38;4995316;28;20384;-40
2021/11/27 04:53:38;;;;;;;12.40;8.10;;;;;;;18.84;34.13;95828.34;4995439;28;20022;-40
2021/11/27 04:56:07;;;;;;;10.80;8.55;;;;;;;18.87;33.85;95839.13;4995475;28;20041;-40
2021/11/27 04:58:35;;;;;;;10.20;6.93;;;;;;;18.83;33.70;95852.97;5010389;28;20026;-41
2021/11/27 05:01:04;;;;;;;9.20;7.70;;;;;;;18.77;33.78;95846.25;4995231;28;20043;-41
2021/11/27 05:03:33;;;;;;;10.35;7.68;;;;;;;18.78;33.79;95851.28;4995509;28;20037;-41
2021/11/27 05:06:01;;;;;;;9.25;7.40;;;;;;;18.78;33.91;95847.72;4994038;28;20027;-41
2021/11/27 05:08:30;;;;;;;8.57;7.00;;;;;;;18.82;33.84;95854.31;4995238;28;20494;-41
2021/11/27 05:10:58;;;;;;;9.82;8.10;;;;;;;18.77;33.85;95851.91;4995131;28;20045;-41
2021/11/27 05:13:27;;;;;;;11.43;7.70;;;;;;;18.65;33.67;95840.63;4994945;28;20026;-41
2021/11/27 05:15:55;;;;;;;11.30;8.35;;;;;;;18.68;33.92;95842.97;4995052;28;20084;-40
2021/11/27 05:18:24;;;;;;;10.23;7.38;;;;;;;18.68;33.70;95842.25;4994997;28;20030;-41
2021/11/27 05:20:52;;;;;;;10.18;6.93;;;;;;;18.64;33.72;95827.91;4994760;28;20035;-42
2021/11/27 05:23:20;;;;;;;10.43;7.28;;;;;;;18.68;33.69;95842.97;4994964;28;20513;-40
2021/11/27 05:25:49;;;;;;;10.05;7.28;;;;;;;18.61;34.16;95835.53;4994955;28;20033;-41
2021/11/27 05:28:18;;;;;;;10.27;7.35;;;;;;;18.62;33.84;95839.78;4995167;28;20030;-40
2021/11/27 05:30:47;;;;;;;11.40;7.68;;;;;;;18.67;33.62;95854.84;4994895;28;20057;-41
2021/11/27 05:33:23;;;;;;;9.18;7.13;;;;;;;18.69;33.98;95857.81;4993281;28;20026;-40
2021/11/27 05:35:50;;;;;;;9.52;7.13;;;;;;;18.66;34.13;95859.00;4994658;28;20040;-41
2021/11/27 05:38:18;;;;;;;9.15;7.53;;;;;;;18.58;34.30;95856.47;4993476;28;20077;-40
2021/11/27 05:40:47;;;;;;;10.98;7.72;;;;;;;18.65;33.87;95854.72;4994969;28;20382;-41
2021/11/27 05:43:15;;;;;;;10.20;7.68;;;;;;;18.73;33.97;95863.66;4994642;28;20529;-40
2021/11/27 05:45:41;;;;;;;9.48;7.63;;;;;;;18.77;34.10;95863.16;4994551;28;20116;-41
2021/11/27 05:48:09;;;;;;;10.45;7.75;;;;;;;18.77;34.07;95849.09;4994776;28;20466;-41
2021/11/27 05:50:37;;;;;;;10.60;7.28;;;;;;;18.74;33.62;95854.59;4994769;28;20037;-41
2021/11/27 05:53:06;;;;;;;9.65;7.40;;;;;;;18.74;33.80;95867.97;4994329;28;20564;-40
2021/11/27 05:55:34;;;;;;;9.93;7.47;;;;;;;18.74;33.97;95873.59;4994656;28;20441;-40
2021/11/27 05:58:03;;;;;;;9.93;7.32;;;;;;;18.78;33.77;95867.44;4994460;28;20498;-42
2021/11/27 06:00:31;;;;;;;8.90;7.20;;;;;;;18.70;33.73;95857.19;4994447;28;20030;-40
2021/11/27 06:03:00;;;;;;;10.85;7.35;;;;;;;18.71;33.74;95860.72;4994261;28;20029;-40
2021/11/27 06:05:29;;;;;;;10.48;7.25;;;;;;;18.72;33.92;95854.47;4994297;28;20034;-41
2021/11/27 06:07:58;;;;;;;9.65;7.38;;;;;;;18.67;33.80;95852.03;4994433;28;20038;-40
2021/11/27 06:10:26;;;;;;;9.30;7.15;;;;;;;18.64;34.07;95856.81;4994235;28;20027;-41
2021/11/27 06:12:55;;;;;;;9.50;6.78;;;;;;;18.68;34.17;95864.78;4994579;28;20057;-41
2021/11/27 06:15:25;;;;;;;8.93;6.85;;;;;;;18.65;33.97;95872.38;4994423;28;20045;-40
2021/11/27 06:17:53;;;;;;;9.68;7.28;;;;;;;18.68;33.82;95884.50;4993449;28;20389;-41
2021/11/27 06:20:22;;;;;;;10.25;7.40;;;;;;;18.59;34.13;95874.84;4994514;28;20034;-40
2021/11/27 06:22:51;;;;;;;9.70;7.03;;;;;;;18.57;34.04;95878.28;5009209;28;20113;-41
2021/11/27 06:25:19;;;;;;;8.90;7.03;;;;;;;18.63;34.04;95910.97;4996504;28;20117;-41
2021/11/27 06:27:48;;;;;;;9.50;6.93;;;;;;;18.65;33.99;95919.53;4998125;28;20034;-40
2021/11/27 06:30:16;;;;;;;8.45;7.00;;;;;;;18.61;34.01;95916.47;4998425;28;20118;-40
2021/11/27 06:32:45;;;;;;;8.95;6.82;;;;;;;18.51;33.80;95914.53;4998075;28;20034;-40
2021/11/27 06:35:14;;;;;;;8.88;7.07;;;;;;;18.56;33.78;95927.50;5013186;28;20038;-40
2021/11/27 06:37:42;;;;;;;10.73;7.25;;;;;;;18.53;33.85;95916.72;4997719;28;20057;-40
2021/11/27 06:40:11;;;;;;;9.15;6.65;;;;;;;18.56;33.81;95933.13;4998163;28;20036;-40
2021/11/27 06:42:40;;;;;;;9.23;7.35;;;;;;;18.56;33.87;95935.22;5012911;28;20033;-42
2021/11/27 06:45:06;;;;;;;8.60;6.95;;;;;;;18.54;33.75;95932.28;4998291;28;20050;-41
2021/11/27 06:47:34;;;;;;;10.38;7.45;;;;;;;18.55;34.05;95936.56;4997681;28;20096;-41
2021/11/27 06:50:02;;;;;;;8.95;6.45;;;;;;;18.44;34.10;95934.50;4997721;28;20026;-41
2021/11/27 06:52:31;;;;;;;9.45;6.90;;;;;;;18.44;34.08;95942.94;4997558;28;20032;-40
2021/11/27 06:54:59;;;;;;;9.05;6.60;;;;;;;18.44;34.07;95951.38;4997534;28;20022;-44
2021/11/27 06:57:27;;;;;;;8.93;6.60;;;;;;;18.39;33.73;95967.28;4997711;28;20129;-41
2021/11/27 06:59:56;;;;;;;9.75;6.43;;;;;;;18.40;34.16;95974.41;4997511;28;20034;-40
2021/11/27 07:02:24;;;;;;;9.52;6.15;;;;;;;18.43;33.85;95980.88;4997405;28;20026;-40
2021/11/27 07:04:53;;;;;;;8.02;6.18;;;;;;;18.44;34.17;95974.66;4997190;28;20065;-41
2021/11/27 07:07:19;;;;;;;9.20;6.50;;;;;;;18.40;34.03;95977.94;4997974;28;20030;-41
2021/11/27 07:09:48;;;;;;;9.00;6.63;;;;;;;18.40;33.87;95977.94;4997508;28;20061;-40
2021/11/27 07:12:16;;;;;;;8.23;6.35;;;;;;;18.37;34.39;95973.53;4997388;28;20115;-40
2021/11/27 07:14:45;;;;;;;9.05;6.82;;;;;;;18.43;34.29;95980.88;4997202;28;20489;-40
2021/11/27 07:17:13;;;;;;;8.68;7.07;;;;;;;18.38;34.09;95975.03;4997172;28;20462;-40
2021/11/27 07:19:41;;;;;;;9.10;7.13;;;;;;;18.44;33.97;95979.56;4997709;28;20037;-40
2021/11/27 07:22:10;;;;;;;8.63;6.25;;;;;;;18.48;34.00;95988.25;4997134;28;20034;-41
2021/11/27 07:24:38;;;;;;;9.25;6.70;;;;;;;18.43;34.02;95975.97;4997070;28;20034;-40
2021/11/27 07:27:07;;;;;;;9.13;6.85;;;;;;;18.45;33.91;95975.41;4997271;28;20034;-41
2021/11/27 07:29:38;;;;;;;9.23;7.15;;;;;;;18.52;34.05;95975.16;4996869;28;20355;-40
2021/11/27 07:32:07;;;;;;;9.63;7.32;;;;;;;18.49;33.84;95986.91;4995951;28;20189;-40
2021/11/27 07:34:36;;;;;;;7.93;6.55;;;;;;;18.46;33.92;95988.84;5012221;28;20027;-41
2021/11/27 07:37:05;;;;;;;8.82;6.22;;;;;;;18.50;33.82;96003.19;5010915;28;20053;-40
2021/11/27 07:39:35;;;;;;;9.13;6.30;;;;;;;18.41;33.96;95996.31;4995597;28;20034;-40
2021/11/27 07:42:05;;;;;;;9.32;7.18;;;;;;;18.30;34.14;95985.75;4995528;28;20067;-41
2021/11/27 07:44:30;;;;;;;9.15;6.38;;;;;;;18.24;34.44;95974.88;4995570;28;20193;-40
2021/11/27 07:46:59;;;;;;;8.52;6.60;;;;;;;18.41;34.02;95989.97;4996736;28;20113;-41
2021/11/27 07:49:27;;;;;;;9.82;7.15;;;;;;;18.36;33.86;95985.44;4996466;28;20394;-40
2021/11/27 07:51:55;;;;;;;9.38;6.95;;;;;;;18.33;34.32;95983.81;4996916;28;20034;-40
2021/11/27 07:54:24;;;;;;;10.02;6.95;;;;;;;18.42;34.07;96002.69;4996615;28;20042;-40
2021/11/27 07:56:53;;;;;;;9.98;6.90;;;;;;;18.44;34.14;96010.53;4995078;28;20448;-40
2021/11/27 07:59:22;;;;;;;9.27;6.80;;;;;;;18.37;34.13;96006.59;5011616;28;20034;-41
2021/11/27 08:01:50;;;;;;;8.02;6.00;;;;;;;18.34;34.00;96005.00;5011573;28;20125;-40
2021/11/27 08:04:19;;;;;;;8.30;6.22;;;;;;;18.41;33.90;96016.03;4996562;28;20030;-40
2021/11/27 08:06:48;;;;;;;8.98;6.68;;;;;;;18.47;34.09;96020.56;5011442;28;20041;-40
2021/11/27 08:09:16;;;;;;;10.02;6.88;;;;;;;18.45;33.77;96035.28;5011177;28;20049;-40
2021/11/27 08:11:45;;;;;;;9.80;6.68;;;;;;;18.36;33.86;96038.94;4996536;28;20027;-40
2021/11/27 08:14:13;;;;;;;8.98;6.20;;;;;;;18.31;34.34;96035.13;4996733;28;20034;-40
2021/11/27 08:16:42;;;;;;;8.93;6.70;;;;;;;18.34;34.04;96047.25;4996207;28;20034;-40
2021/11/27 08:19:10;;;;;;;8.73;6.68;;;;;;;18.27;34.40;96048.22;4996052;28;20052;-40
2021/11/27 08:21:38;;;;;;;8.70;6.38;;;;;;;18.27;34.26;96054.56;4996029;28;20058;-40
2021/11/27 08:24:07;;;;;;;7.68;5.68;;;;;;;18.28;33.96;96047.59;4995979;28;20077;-40
2021/11/27 08:26:36;;;;;;;8.30;6.35;;;;;;;18.30;34.12;96047.72;4996279;28;20529;-40
2021/11/27 08:29:04;;;;;;;8.25;6.40;;;;;;;18.22;33.99;96053.56;4996301;28;20026;-40
2021/11/27 08:31:32;;;;;;;7.78;5.60;;;;;;;18.27;34.43;96054.56;4996109;28;20069;-41
2021/11/27 08:34:01;;;;;;;8.77;6.57;;;;;;;18.32;34.15;96056.31;4995698;28;20051;-40
2021/11/27 08:36:30;;;;;;;8.07;6.15;;;;;;;18.20;33.75;96047.09;5010616;28;20026;-41
2021/11/27 08:38:58;;;;;;;9.15;6.50;;;;;;;18.22;33.89;96056.38;4995779;28;20034;-42
2021/11/27 08:41:27;;;;;;;8.48;6.45;;;;;;;18.26;34.28;96070.00;4994916;28;20494;-41
2021/11/27 08:43:52;;;;;;;9.07;6.38;;;;;;;18.12;34.19;96052.22;4995311;28;20085;-42
2021/11/27 08:46:21;;;;;;;7.68;5.72;;;;;;;18.22;34.01;96064.09;4995543;28;20413;-40
2021/11/27 08:48:49;;;;;;;9.43;6.63;;;;;;;18.16;33.87;96069.34;4995194;28;20034;-40
2021/11/27 08:51:19;;;;;;;8.65;6.30;;;;;;;18.26;33.84;96086.16;4995639;28;20461;-40
2021/11/27 08:53:47;;;;;;;11.60;6.43;;;;;;;18.18;33.93;96078.66;4995755;28;20035;-40
2021/11/27 08:56:15;;;;;;;9.60;6.80;;;;;;;18.27;34.15;96077.09;4996048;28;20034;-40
2021/11/27 08:58:44;;;;;;;8.65;6.35;;;;;;;18.23;34.39;96074.03;4995665;28;20035;-39
2021/11/27 09:01:13;;;;;;;8.27;6.15;;;;;;;18.32;34.05;96084.47;4995236;28;20108;-40
2021/11/27 09:03:42;;;;;;;8.25;6.15;;;;;;;18.38;33.97;96084.84;5010138;28;20370;-40
2021/11/27 09:06:11;;;;;;;7.90;5.90;;;;;;;18.41;33.98;96085.72;4994006;28;20057;-40
2021/11/27 09:08:41;;;;;;;7.70;5.88;;;;;;;18.41;34.17;96100.53;4995561;28;20034;-40
2021/11/27 09:11:15;;;;;;;8.32;5.63;;;;;;;18.40;33.76;96099.03;4994871;28;20062;-40
2021/11/27 09:13:43;;;;;;;7.07;5.60;;;;;;;18.36;34.01;96090.34;5010105;28;20512;-40
2021/11/27 09:16:11;;;;;;;8.70;6.18;;;;;;;18.39;33.92;96103.22;5010209;28;20041;-40
2021/11/27 09:18:39;;;;;;;7.75;5.80;;;;;;;18.43;33.73;96104.81;4994796;28;20105;-40
2021/11/27 09:21:08;;;;;;;8.93;5.95;;;;;;;18.37;33.91;96105.19;4995009;28;20039;-40
2021/11/27 09:23:36;;;;;;;7.80;5.80;;;;;;;18.39;33.59;96102.47;4994814;28;20081;-40
2021/11/27 09:26:05;;;;;;;9.55;6.55;;;;;;;18.35;34.00;96100.13;4994973;28;20041;-40
2021/11/27 09:28:34;;;;;;;7.75;5.95;;;;;;;18.37;33.75;96113.63;4994593;28;20041;-40
2021/11/27 09:31:02;;;;;;;7.68;5.68;;;;;;;18.30;33.92;96109.66;4994919;28;20068;-40
2021/11/27 09:33:31;;;;;;;8.88;6.30;;;;;;;18.30;34.22;96114.56;4994910;28;20497;-40
2021/11/27 09:36:08;;;;;;;7.50;5.97;;;;;;;18.33;33.84;96116.91;4994853;28;20398;-40
2021/11/27 09:38:35;;;;;;;8.95;6.15;;;;;;;18.30;33.73;96106.84;4994680;28;20053;-41
2021/11/27 09:41:25;;;;;;;8.88;6.10;;;;;;;18.25;33.90;96105.13;4993433;28;20062;-40
2021/11/27 09:43:53;;;;;;;8.60;5.85;;;;;;;18.23;34.29;96102.91;4994538;28;20030;-40
2021/11/27 09:46:23;;;;;;;7.95;5.90;;;;;;;18.28;34.04;96114.44;5009585;28;20045;-40
2021/11/27 09:48:55;;;;;;;8.30;5.82;;;;;;;18.22;33.80;96100.72;5009697;28;20042;-40
2021/11/27 09:51:29;;;;;;;9.20;6.33;;;;;;;18.24;34.03;96100.84;4992974;28;20026;-40
2021/11/27 09:53:57;;;;;;;9.57;6.43;;;;;;;18.18;33.97;96086.38;4993466;28;20088;-40
2021/11/27 09:56:27;;;;;;;6.80;5.30;;;;;;;18.22;33.92;96095.09;4993744;28;20026;-40
2021/11/27 09:58:56;;;;;;;7.95;6.28;;;;;;;18.29;33.84;96096.94;4992567;28;20088;-40
2021/11/27 10:01:29;;;;;;;8.13;5.97;;;;;;;18.32;33.90;96095.72;5009670;28;20587;-40
2021/11/27 10:04:02;;;;;;;7.43;5.70;;;;;;;18.37;33.89;96105.91;4992820;28;20481;-41
2021/11/27 10:06:39;;;;;;;9.38;5.85;;;;;;;18.37;33.75;96097.47;4994311;28;20022;-40
2021/11/27 10:09:07;;;;;;;7.50;6.00;;;;;;;18.34;33.72;96093.06;4994562;28;20035;-40
2021/11/27 10:11:37;;;;;;;7.30;5.40;;;;;;;18.33;33.67;96085.94;4993060;28;20521;-40
2021/11/27 10:14:06;;;;;;;7.40;5.30;;;;;;;18.31;33.92;96094.25;4992927;28;20501;-42
2021/11/27 10:16:56;;;;;;;8.52;5.72;;;;;;;18.43;34.05;96104.81;4994260;28;20034;-40
2021/11/27 10:19:25;;;;;;;8.18;5.68;;;;;;;18.41;34.09;96099.78;5009418;28;20085;-40
2021/11/27 10:21:59;;;;;;;7.07;5.45;;;;;;;18.41;33.66;96114.59;4993085;28;20565;-40
2021/11/27 10:24:29;;;;;;;8.35;5.18;;;;;;;18.44;34.08;96112.66;4993404;28;20077;-40
2021/11/27 10:27:00;;;;;;;8.38;5.53;;;;;;;18.48;33.78;96103.72;4992934;28;20031;-40
2021/11/27 10:29:32;;;;;;;10.23;6.97;;;;;;;18.50;33.70;96113.03;5009321;28;20034;-40
2021/11/27 10:32:07;;;;;;;;;;;;;;;18.53;33.55;96119.53;5009526;28;20497;-39
2021/11/27 10:34:34;;;;;;;7.82;5.80;;;;;;;18.53;33.29;96131.56;4994216;28;19937;-40
2021/11/27 10:37:25;;;;;;;8.82;6.32;;;;;;;18.48;33.55;96134.72;5009077;28;20023;-40
2021/11/27 10:40:18;;;;;;;7.57;5.60;;;;;;;18.48;33.84;96135.47;5009256;28;20022;-41
2021/11/27 10:42:52;;;;;;;7.82;5.85;;;;;;;18.50;33.84;96120.75;4994346;28;20402;-40
2021/11/27 10:45:33;;;;;;;6.90;5.40;;;;;;;18.44;33.59;96111.94;4992860;28;20100;-40
2021/11/27 10:48:16;;;;;;;8.15;5.55;;;;;;;18.45;33.83;96114.13;4993491;28;20026;-40
2021/11/27 10:50:52;;;;;;;8.30;6.13;;;;;;;18.53;33.71;96123.09;4993964;28;20034;-40
2021/11/27 10:53:24;;;;;;;6.97;5.55;;;;;;;18.36;33.65;96118.50;5008933;28;20031;-40
2021/11/27 10:55:51;;;;;;;8.55;6.15;;;;;;;18.29;33.88;96119.47;4993775;28;20077;-40
2021/11/27 10:58:20;;;;;;;6.70;5.45;;;;;;;18.39;33.66;96145.47;4992391;28;20101;-40
2021/11/27 11:00:50;;;;;;;8.68;6.20;;;;;;;18.38;33.95;96141.19;4993897;28;20042;-40
2021/11/27 11:03:30;;;;;;;7.65;5.45;;;;;;;18.45;33.61;96152.84;4994489;28;20034;-40
2021/11/27 11:05:59;;;;;;;6.68;4.75;;;;;;;18.38;34.04;96149.63;5009055;28;20042;-40
2021/11/27 11:08:31;;;;;;;8.27;6.18;;;;;;;18.43;33.78;96156.25;4992404;28;20080;-40
2021/11/27 11:10:57;;;;;;;6.47;5.18;;;;;;;18.33;33.72;96141.50;4995506;28;20057;-40
2021/11/27 11:13:31;;;;;;;8.38;5.93;;;;;;;18.39;33.83;96161.63;4998021;28;20470;-40
2021/11/27 11:16:08;;;;;;;7.68;5.25;;;;;;;18.29;33.65;96142.00;4996041;28;20030;-40
2021/11/27 11:18:36;;;;;;;6.22;5.07;;;;;;;18.29;34.19;96147.66;4997170;28;20033;-40
2021/11/27 11:21:05;;;;;;;6.40;4.57;;;;;;;18.32;34.13;96149.22;4997018;28;20092;-41
2021/11/27 11:23:35;;;;;;;8.18;5.25;;;;;;;18.28;33.97;96143.34;4995973;28;20037;-40
2021/11/27 11:26:05;;;;;;;7.97;5.90;;;;;;;18.31;34.01;96155.47;4997570;28;20026;-40
2021/11/27 11:28:41;;;;;;;7.10;5.40;;;;;;;18.34;34.17;96151.44;5012460;28;20034;-40
2021/11/27 11:31:13;;;;;;;7.60;5.55;;;;;;;18.33;33.89;96159.16;4995581;28;20027;-40
2021/11/27 11:33:47;;;;;;;7.82;5.40;;;;;;;18.34;33.92;96173.97;4995805;28;20521;-40
2021/11/27 11:36:14;;;;;;;7.78;5.72;;;;;;;18.34;34.04;96171.91;4997176;28;20168;-39
2021/11/27 11:38:52;;;;;;;6.80;5.40;;;;;;;18.30;33.96;96180.06;4995691;28;20096;-40
2021/11/27 11:41:20;;;;;;;7.28;5.10;;;;;;;18.21;34.06;96176.00;4996856;28;20026;-40